sensor_id;sensor_type;location;lat;lon;timestamp;P1;durP1;ratioP1;P2;durP2;ratioP2
73219;SDS011;61434;43.538;-5.688;2022-09-29T00:01:07;10.32;;;2.90;;
73219;SDS011;61434;43.538;-5.688;2022-09-29T00:03:32;16.70;;;2.30;;
73219;SDS011;61434;43.538;-5.688;2022-09-29T00:05:58;10.25;;;1.90;;
73219;SDS011;61434;43.538;-5.688;2022-09-29T00:08:25;6.87;;;1.27;;
73219;SDS011;61434;43.538;-5.688;2022-09-29T00:10:52;11.13;;;2.03;;
73219;SDS011;61434;43.538;-5.688;2022-09-29T00:13:17;10.88;;;2.10;;
73219;SDS011;61434;43.538;-5.688;2022-09-29T00:15:44;8.27;;;2.20;;
73219;SDS011;61434;43.538;-5.688;2022-09-29T00:18:18;16.25;;;4.28;;
73219;SDS011;61434;43.538;-5.688;2022-09-29T00:20:43;19.07;;;5.90;;
73219;SDS011;61434;43.538;-5.688;2022-09-29T00:23:09;17.13;;;5.60;;
73219;SDS011;61434;43.538;-5.688;2022-09-29T00:25:34;11.97;;;4.40;;
73219;SDS011;61434;43.538;-5.688;2022-09-29T00:28:00;13.40;;;5.30;;
73219;SDS011;61434;43.538;-5.688;2022-09-29T00:30:25;11.13;;;4.60;;
73219;SDS011;61434;43.538;-5.688;2022-09-29T00:32:51;9.57;;;2.70;;
73219;SDS011;61434;43.538;-5.688;2022-09-29T00:35:17;9.37;;;2.83;;
73219;SDS011;61434;43.538;-5.688;2022-09-29T00:37:42;9.48;;;2.83;;
73219;SDS011;61434;43.538;-5.688;2022-09-29T00:40:08;6.68;;;2.10;;
73219;SDS011;61434;43.538;-5.688;2022-09-29T00:42:34;7.37;;;1.97;;
73219;SDS011;61434;43.538;-5.688;2022-09-29T00:45:01;9.07;;;2.20;;
73219;SDS011;61434;43.538;-5.688;2022-09-29T00:47:46;6.78;;;1.92;;
73219;SDS011;61434;43.538;-5.688;2022-09-29T00:50:20;8.27;;;2.20;;
73219;SDS011;61434;43.538;-5.688;2022-09-29T00:52:52;7.80;;;2.60;;
73219;SDS011;61434;43.538;-5.688;2022-09-29T00:55:35;8.55;;;2.75;;
73219;SDS011;61434;43.538;-5.688;2022-09-29T00:58:12;6.73;;;2.17;;
73219;SDS011;61434;43.538;-5.688;2022-09-29T01:00:41;10.20;;;2.78;;
73219;SDS011;61434;43.538;-5.688;2022-09-29T01:03:08;10.05;;;3.30;;
73219;SDS011;61434;43.538;-5.688;2022-09-29T01:05:38;8.30;;;2.97;;
73219;SDS011;61434;43.538;-5.688;2022-09-29T01:08:19;10.90;;;3.00;;
73219;SDS011;61434;43.538;-5.688;2022-09-29T01:10:51;9.33;;;2.90;;
73219;SDS011;61434;43.538;-5.688;2022-09-29T01:13:17;8.90;;;1.65;;
73219;SDS011;61434;43.538;-5.688;2022-09-29T01:15:43;5.45;;;1.30;;
73219;SDS011;61434;43.538;-5.688;2022-09-29T01:18:09;4.37;;;1.10;;
73219;SDS011;61434;43.538;-5.688;2022-09-29T01:20:38;5.75;;;1.00;;
73219;SDS011;61434;43.538;-5.688;2022-09-29T01:23:27;7.35;;;1.10;;
73219;SDS011;61434;43.538;-5.688;2022-09-29T01:34:46;7.22;;;1.25;;
73219;SDS011;61434;43.538;-5.688;2022-09-29T01:37:34;4.90;;;0.90;;
73219;SDS011;61434;43.538;-5.688;2022-09-29T01:43:08;4.83;;;1.00;;
73219;SDS011;61434;43.538;-5.688;2022-09-29T01:45:52;5.82;;;1.30;;
73219;SDS011;61434;43.538;-5.688;2022-09-29T01:48:28;6.32;;;1.85;;
73219;SDS011;61434;43.538;-5.688;2022-09-29T01:50:59;6.25;;;1.67;;
73219;SDS011;61434;43.538;-5.688;2022-09-29T01:53:34;6.22;;;1.33;;
73219;SDS011;61434;43.538;-5.688;2022-09-29T01:56:06;7.77;;;1.60;;
73219;SDS011;61434;43.538;-5.688;2022-09-29T01:58:42;9.65;;;2.28;;
73219;SDS011;61434;43.538;-5.688;2022-09-29T02:01:16;8.65;;;2.28;;
73219;SDS011;61434;43.538;-5.688;2022-09-29T02:03:50;8.13;;;2.80;;
73219;SDS011;61434;43.538;-5.688;2022-09-29T02:06:54;8.18;;;3.35;;
73219;SDS011;61434;43.538;-5.688;2022-09-29T02:09:26;8.60;;;2.90;;
73219;SDS011;61434;43.538;-5.688;2022-09-29T02:11:55;7.55;;;2.25;;
73219;SDS011;61434;43.538;-5.688;2022-09-29T02:14:24;6.38;;;1.98;;
73219;SDS011;61434;43.538;-5.688;2022-09-29T02:16:59;5.40;;;1.00;;
73219;SDS011;61434;43.538;-5.688;2022-09-29T02:19:35;5.50;;;0.95;;
73219;SDS011;61434;43.538;-5.688;2022-09-29T02:22:03;5.57;;;0.80;;
73219;SDS011;61434;43.538;-5.688;2022-09-29T02:24:29;3.60;;;0.90;;
73219;SDS011;61434;43.538;-5.688;2022-09-29T02:26:55;5.13;;;0.90;;
73219;SDS011;61434;43.538;-5.688;2022-09-29T02:29:20;5.82;;;1.00;;
73219;SDS011;61434;43.538;-5.688;2022-09-29T02:31:46;4.47;;;1.00;;
73219;SDS011;61434;43.538;-5.688;2022-09-29T02:34:13;4.25;;;0.98;;
73219;SDS011;61434;43.538;-5.688;2022-09-29T02:41:54;5.73;;;0.93;;
73219;SDS011;61434;43.538;-5.688;2022-09-29T02:47:30;4.38;;;0.95;;
73219;SDS011;61434;43.538;-5.688;2022-09-29T03:01:24;3.13;;;0.60;;
73219;SDS011;61434;43.538;-5.688;2022-09-29T03:03:50;3.30;;;0.60;;
73219;SDS011;61434;43.538;-5.688;2022-09-29T03:06:15;3.87;;;0.77;;
73219;SDS011;61434;43.538;-5.688;2022-09-29T03:08:45;5.60;;;0.65;;
73219;SDS011;61434;43.538;-5.688;2022-09-29T03:11:10;4.70;;;0.70;;
73219;SDS011;61434;43.538;-5.688;2022-09-29T03:13:36;4.07;;;0.83;;
73219;SDS011;61434;43.538;-5.688;2022-09-29T03:16:01;4.93;;;0.80;;
73219;SDS011;61434;43.538;-5.688;2022-09-29T03:18:27;4.88;;;1.13;;
73219;SDS011;61434;43.538;-5.688;2022-09-29T03:20:53;3.93;;;0.83;;
73219;SDS011;61434;43.538;-5.688;2022-09-29T03:23:19;10.10;;;4.07;;
73219;SDS011;61434;43.538;-5.688;2022-09-29T03:25:45;14.43;;;2.90;;
73219;SDS011;61434;43.538;-5.688;2022-09-29T03:28:10;8.30;;;2.27;;
73219;SDS011;61434;43.538;-5.688;2022-09-29T03:30:36;7.63;;;1.90;;
73219;SDS011;61434;43.538;-5.688;2022-09-29T03:33:01;7.40;;;1.30;;
73219;SDS011;61434;43.538;-5.688;2022-09-29T03:35:27;6.03;;;1.40;;
73219;SDS011;61434;43.538;-5.688;2022-09-29T03:37:56;5.70;;;1.20;;
73219;SDS011;61434;43.538;-5.688;2022-09-29T03:40:22;3.83;;;0.90;;
73219;SDS011;61434;43.538;-5.688;2022-09-29T03:42:47;4.68;;;1.15;;
73219;SDS011;61434;43.538;-5.688;2022-09-29T03:45:13;5.00;;;1.10;;
73219;SDS011;61434;43.538;-5.688;2022-09-29T03:47:38;6.53;;;0.97;;
73219;SDS011;61434;43.538;-5.688;2022-09-29T03:50:04;4.93;;;1.20;;
73219;SDS011;61434;43.538;-5.688;2022-09-29T03:52:30;4.78;;;1.02;;
73219;SDS011;61434;43.538;-5.688;2022-09-29T03:54:55;5.93;;;1.30;;
73219;SDS011;61434;43.538;-5.688;2022-09-29T03:57:21;5.65;;;1.13;;
73219;SDS011;61434;43.538;-5.688;2022-09-29T03:59:46;6.27;;;1.30;;
73219;SDS011;61434;43.538;-5.688;2022-09-29T04:02:12;5.77;;;1.43;;
73219;SDS011;61434;43.538;-5.688;2022-09-29T04:04:38;6.22;;;1.20;;
73219;SDS011;61434;43.538;-5.688;2022-09-29T04:07:03;7.47;;;1.30;;
73219;SDS011;61434;43.538;-5.688;2022-09-29T04:09:29;5.93;;;1.00;;
73219;SDS011;61434;43.538;-5.688;2022-09-29T04:11:55;7.00;;;1.20;;
73219;SDS011;61434;43.538;-5.688;2022-09-29T04:14:20;6.67;;;1.00;;
73219;SDS011;61434;43.538;-5.688;2022-09-29T04:16:46;7.10;;;1.33;;
73219;SDS011;61434;43.538;-5.688;2022-09-29T04:19:11;5.43;;;1.13;;
73219;SDS011;61434;43.538;-5.688;2022-09-29T04:21:37;7.13;;;1.37;;
73219;SDS011;61434;43.538;-5.688;2022-09-29T04:24:02;7.23;;;1.23;;
73219;SDS011;61434;43.538;-5.688;2022-09-29T04:26:28;5.47;;;1.20;;
73219;SDS011;61434;43.538;-5.688;2022-09-29T04:28:54;6.40;;;1.40;;
73219;SDS011;61434;43.538;-5.688;2022-09-29T04:31:19;7.88;;;1.80;;
73219;SDS011;61434;43.538;-5.688;2022-09-29T04:33:45;7.70;;;1.60;;
73219;SDS011;61434;43.538;-5.688;2022-09-29T04:36:10;6.73;;;1.60;;
73219;SDS011;61434;43.538;-5.688;2022-09-29T04:38:36;6.37;;;1.40;;
73219;SDS011;61434;43.538;-5.688;2022-09-29T04:41:01;16.80;;;2.70;;
73219;SDS011;61434;43.538;-5.688;2022-09-29T04:43:27;19.53;;;3.40;;
73219;SDS011;61434;43.538;-5.688;2022-09-29T04:45:52;15.43;;;4.03;;
73219;SDS011;61434;43.538;-5.688;2022-09-29T04:48:25;15.07;;;3.17;;
73219;SDS011;61434;43.538;-5.688;2022-09-29T04:50:51;17.00;;;3.27;;
73219;SDS011;61434;43.538;-5.688;2022-09-29T04:53:19;10.95;;;4.03;;
73219;SDS011;61434;43.538;-5.688;2022-09-29T04:55:44;17.05;;;6.43;;
73219;SDS011;61434;43.538;-5.688;2022-09-29T04:58:10;13.73;;;5.63;;
73219;SDS011;61434;43.538;-5.688;2022-09-29T05:00:35;11.67;;;4.07;;
73219;SDS011;61434;43.538;-5.688;2022-09-29T05:03:01;11.38;;;3.72;;
73219;SDS011;61434;43.538;-5.688;2022-09-29T05:05:27;8.70;;;2.57;;
73219;SDS011;61434;43.538;-5.688;2022-09-29T05:07:53;11.15;;;2.35;;
73219;SDS011;61434;43.538;-5.688;2022-09-29T05:10:18;10.80;;;2.57;;
73219;SDS011;61434;43.538;-5.688;2022-09-29T05:12:51;10.32;;;2.78;;
73219;SDS011;61434;43.538;-5.688;2022-09-29T05:15:17;10.52;;;3.22;;
73219;SDS011;61434;43.538;-5.688;2022-09-29T05:17:43;13.82;;;3.90;;
73219;SDS011;61434;43.538;-5.688;2022-09-29T05:20:09;10.00;;;2.60;;
73219;SDS011;61434;43.538;-5.688;2022-09-29T05:22:35;6.40;;;1.80;;
73219;SDS011;61434;43.538;-5.688;2022-09-29T05:25:01;11.37;;;2.33;;
73219;SDS011;61434;43.538;-5.688;2022-09-29T05:27:26;7.43;;;1.70;;
73219;SDS011;61434;43.538;-5.688;2022-09-29T05:29:51;7.57;;;1.90;;
73219;SDS011;61434;43.538;-5.688;2022-09-29T05:32:17;8.37;;;2.00;;
73219;SDS011;61434;43.538;-5.688;2022-09-29T05:34:42;9.97;;;1.53;;
73219;SDS011;61434;43.538;-5.688;2022-09-29T05:37:08;5.20;;;1.70;;
73219;SDS011;61434;43.538;-5.688;2022-09-29T05:39:34;10.73;;;1.90;;
73219;SDS011;61434;43.538;-5.688;2022-09-29T05:42:01;9.93;;;2.10;;
73219;SDS011;61434;43.538;-5.688;2022-09-29T05:44:27;9.63;;;2.03;;
73219;SDS011;61434;43.538;-5.688;2022-09-29T05:46:53;9.30;;;2.43;;
73219;SDS011;61434;43.538;-5.688;2022-09-29T05:49:19;9.97;;;2.57;;
73219;SDS011;61434;43.538;-5.688;2022-09-29T05:51:44;6.90;;;2.10;;
73219;SDS011;61434;43.538;-5.688;2022-09-29T05:54:10;10.43;;;2.10;;
73219;SDS011;61434;43.538;-5.688;2022-09-29T05:56:35;7.57;;;1.97;;
73219;SDS011;61434;43.538;-5.688;2022-09-29T05:59:01;10.00;;;2.17;;
73219;SDS011;61434;43.538;-5.688;2022-09-29T06:01:26;10.13;;;2.67;;
73219;SDS011;61434;43.538;-5.688;2022-09-29T06:03:52;9.43;;;2.27;;
73219;SDS011;61434;43.538;-5.688;2022-09-29T06:06:20;5.82;;;1.70;;
73219;SDS011;61434;43.538;-5.688;2022-09-29T06:08:48;8.55;;;2.10;;
73219;SDS011;61434;43.538;-5.688;2022-09-29T06:11:16;8.57;;;2.05;;
73219;SDS011;61434;43.538;-5.688;2022-09-29T06:13:44;9.37;;;2.10;;
73219;SDS011;61434;43.538;-5.688;2022-09-29T06:16:12;9.02;;;2.20;;
73219;SDS011;61434;43.538;-5.688;2022-09-29T06:18:38;16.58;;;2.53;;
73219;SDS011;61434;43.538;-5.688;2022-09-29T06:21:05;10.20;;;2.63;;
73219;SDS011;61434;43.538;-5.688;2022-09-29T06:23:32;9.33;;;2.20;;
73219;SDS011;61434;43.538;-5.688;2022-09-29T06:25:59;9.82;;;2.08;;
73219;SDS011;61434;43.538;-5.688;2022-09-29T06:28:28;8.10;;;2.63;;
73219;SDS011;61434;43.538;-5.688;2022-09-29T06:31:13;12.50;;;3.38;;
73219;SDS011;61434;43.538;-5.688;2022-09-29T06:33:43;18.27;;;4.35;;
73219;SDS011;61434;43.538;-5.688;2022-09-29T06:39:08;14.88;;;4.50;;
73219;SDS011;61434;43.538;-5.688;2022-09-29T06:41:35;14.15;;;4.38;;
73219;SDS011;61434;43.538;-5.688;2022-09-29T06:44:01;17.10;;;6.90;;
73219;SDS011;61434;43.538;-5.688;2022-09-29T06:46:26;20.00;;;7.55;;
73219;SDS011;61434;43.538;-5.688;2022-09-29T06:48:53;18.98;;;6.28;;
73219;SDS011;61434;43.538;-5.688;2022-09-29T06:51:19;11.63;;;3.10;;
73219;SDS011;61434;43.538;-5.688;2022-09-29T06:53:46;8.88;;;2.53;;
73219;SDS011;61434;43.538;-5.688;2022-09-29T06:56:13;9.68;;;2.08;;
73219;SDS011;61434;43.538;-5.688;2022-09-29T06:58:39;9.35;;;2.40;;
73219;SDS011;61434;43.538;-5.688;2022-09-29T07:01:04;10.93;;;2.23;;
73219;SDS011;61434;43.538;-5.688;2022-09-29T07:03:30;10.73;;;2.45;;
73219;SDS011;61434;43.538;-5.688;2022-09-29T07:05:56;12.47;;;3.00;;
73219;SDS011;61434;43.538;-5.688;2022-09-29T07:08:25;10.98;;;2.75;;
73219;SDS011;61434;43.538;-5.688;2022-09-29T07:10:52;13.25;;;2.80;;
73219;SDS011;61434;43.538;-5.688;2022-09-29T07:13:19;12.02;;;2.30;;
73219;SDS011;61434;43.538;-5.688;2022-09-29T07:15:46;11.18;;;2.50;;
73219;SDS011;61434;43.538;-5.688;2022-09-29T07:18:12;13.43;;;4.20;;
73219;SDS011;61434;43.538;-5.688;2022-09-29T07:20:38;17.27;;;3.55;;
73219;SDS011;61434;43.538;-5.688;2022-09-29T07:23:05;19.33;;;3.05;;
73219;SDS011;61434;43.538;-5.688;2022-09-29T07:25:33;13.07;;;4.67;;
73219;SDS011;61434;43.538;-5.688;2022-09-29T07:27:58;17.88;;;4.85;;
73219;SDS011;61434;43.538;-5.688;2022-09-29T07:30:24;16.40;;;4.50;;
73219;SDS011;61434;43.538;-5.688;2022-09-29T07:32:52;16.20;;;3.50;;
73219;SDS011;61434;43.538;-5.688;2022-09-29T07:35:19;12.77;;;2.93;;
73219;SDS011;61434;43.538;-5.688;2022-09-29T07:37:51;10.57;;;2.70;;
73219;SDS011;61434;43.538;-5.688;2022-09-29T07:40:21;9.05;;;3.47;;
73219;SDS011;61434;43.538;-5.688;2022-09-29T07:42:48;13.90;;;3.38;;
73219;SDS011;61434;43.538;-5.688;2022-09-29T07:45:14;10.00;;;2.70;;
73219;SDS011;61434;43.538;-5.688;2022-09-29T07:47:43;11.83;;;3.20;;
73219;SDS011;61434;43.538;-5.688;2022-09-29T07:50:09;12.52;;;2.95;;
73219;SDS011;61434;43.538;-5.688;2022-09-29T07:52:35;8.40;;;2.93;;
73219;SDS011;61434;43.538;-5.688;2022-09-29T07:55:01;13.93;;;2.95;;
73219;SDS011;61434;43.538;-5.688;2022-09-29T07:57:27;8.10;;;2.55;;
73219;SDS011;61434;43.538;-5.688;2022-09-29T07:59:52;8.37;;;2.27;;
73219;SDS011;61434;43.538;-5.688;2022-09-29T08:02:19;12.70;;;2.10;;
73219;SDS011;61434;43.538;-5.688;2022-09-29T08:04:45;8.03;;;2.20;;
73219;SDS011;61434;43.538;-5.688;2022-09-29T08:07:10;12.20;;;2.72;;
73219;SDS011;61434;43.538;-5.688;2022-09-29T08:09:36;14.37;;;2.70;;
73219;SDS011;61434;43.538;-5.688;2022-09-29T08:12:02;9.90;;;3.33;;
73219;SDS011;61434;43.538;-5.688;2022-09-29T08:14:27;12.50;;;2.70;;
73219;SDS011;61434;43.538;-5.688;2022-09-29T08:16:53;9.10;;;2.23;;
73219;SDS011;61434;43.538;-5.688;2022-09-29T08:19:18;9.02;;;2.45;;
73219;SDS011;61434;43.538;-5.688;2022-09-29T08:21:44;12.30;;;2.60;;
73219;SDS011;61434;43.538;-5.688;2022-09-29T08:24:13;13.57;;;3.60;;
73219;SDS011;61434;43.538;-5.688;2022-09-29T08:26:39;12.77;;;2.78;;
73219;SDS011;61434;43.538;-5.688;2022-09-29T08:29:05;12.70;;;3.43;;
73219;SDS011;61434;43.538;-5.688;2022-09-29T08:31:31;14.32;;;2.70;;
73219;SDS011;61434;43.538;-5.688;2022-09-29T08:33:58;13.10;;;2.72;;
73219;SDS011;61434;43.538;-5.688;2022-09-29T08:36:24;10.45;;;2.00;;
73219;SDS011;61434;43.538;-5.688;2022-09-29T08:38:50;13.67;;;2.77;;
73219;SDS011;61434;43.538;-5.688;2022-09-29T08:43:53;8.35;;;1.80;;
73219;SDS011;61434;43.538;-5.688;2022-09-29T08:46:42;8.95;;;1.92;;
73219;SDS011;61434;43.538;-5.688;2022-09-29T08:49:19;14.87;;;2.80;;
73219;SDS011;61434;43.538;-5.688;2022-09-29T08:51:52;10.43;;;2.70;;
73219;SDS011;61434;43.538;-5.688;2022-09-29T08:54:26;15.93;;;3.20;;
73219;SDS011;61434;43.538;-5.688;2022-09-29T08:56:56;11.55;;;2.60;;
73219;SDS011;61434;43.538;-5.688;2022-09-29T08:59:22;11.88;;;2.40;;
73219;SDS011;61434;43.538;-5.688;2022-09-29T09:02:12;11.00;;;2.47;;
73219;SDS011;61434;43.538;-5.688;2022-09-29T09:07:30;12.40;;;2.92;;
73219;SDS011;61434;43.538;-5.688;2022-09-29T09:12:45;12.52;;;3.90;;
73219;SDS011;61434;43.538;-5.688;2022-09-29T09:15:30;14.83;;;3.90;;
73219;SDS011;61434;43.538;-5.688;2022-09-29T09:26:04;7.80;;;2.55;;
73219;SDS011;61434;43.538;-5.688;2022-09-29T09:31:39;10.30;;;2.80;;
73219;SDS011;61434;43.538;-5.688;2022-09-29T09:34:19;10.40;;;2.90;;
73219;SDS011;61434;43.538;-5.688;2022-09-29T09:36:50;10.68;;;2.67;;
73219;SDS011;61434;43.538;-5.688;2022-09-29T09:39:22;11.73;;;2.90;;
73219;SDS011;61434;43.538;-5.688;2022-09-29T09:41:53;16.13;;;2.63;;
73219;SDS011;61434;43.538;-5.688;2022-09-29T09:44:26;8.52;;;2.80;;
73219;SDS011;61434;43.538;-5.688;2022-09-29T09:49:36;7.32;;;2.75;;
73219;SDS011;61434;43.538;-5.688;2022-09-29T09:54:55;10.80;;;2.50;;
73219;SDS011;61434;43.538;-5.688;2022-09-29T10:02:25;10.25;;;2.28;;
73219;SDS011;61434;43.538;-5.688;2022-09-29T10:04:53;7.88;;;2.22;;
73219;SDS011;61434;43.538;-5.688;2022-09-29T10:07:21;7.72;;;2.90;;
73219;SDS011;61434;43.538;-5.688;2022-09-29T10:09:48;8.25;;;2.60;;
73219;SDS011;61434;43.538;-5.688;2022-09-29T10:12:18;12.57;;;3.67;;
73219;SDS011;61434;43.538;-5.688;2022-09-29T10:17:36;11.50;;;2.78;;
73219;SDS011;61434;43.538;-5.688;2022-09-29T10:20:08;11.55;;;2.10;;
73219;SDS011;61434;43.538;-5.688;2022-09-29T10:22:34;10.10;;;2.30;;
73219;SDS011;61434;43.538;-5.688;2022-09-29T10:25:33;9.63;;;1.98;;
73219;SDS011;61434;43.538;-5.688;2022-09-29T10:27:52;10.30;;;2.57;;
73219;SDS011;61434;43.538;-5.688;2022-09-29T10:30:22;11.23;;;2.42;;
73219;SDS011;61434;43.538;-5.688;2022-09-29T10:32:56;11.20;;;3.25;;
73219;SDS011;61434;43.538;-5.688;2022-09-29T10:41:01;14.53;;;3.63;;
73219;SDS011;61434;43.538;-5.688;2022-09-29T10:43:34;19.35;;;5.18;;
73219;SDS011;61434;43.538;-5.688;2022-09-29T10:46:01;15.32;;;4.00;;
73219;SDS011;61434;43.538;-5.688;2022-09-29T10:48:29;16.58;;;3.75;;
73219;SDS011;61434;43.538;-5.688;2022-09-29T10:50:57;12.83;;;3.17;;
73219;SDS011;61434;43.538;-5.688;2022-09-29T10:55:57;7.82;;;1.85;;
73219;SDS011;61434;43.538;-5.688;2022-09-29T10:58:30;8.88;;;1.85;;
73219;SDS011;61434;43.538;-5.688;2022-09-29T11:01:09;7.10;;;1.88;;
73219;SDS011;61434;43.538;-5.688;2022-09-29T11:04:00;6.67;;;1.70;;
73219;SDS011;61434;43.538;-5.688;2022-09-29T11:06:30;8.77;;;1.92;;
73219;SDS011;61434;43.538;-5.688;2022-09-29T11:17:00;13.53;;;4.90;;
73219;SDS011;61434;43.538;-5.688;2022-09-29T11:19:28;24.33;;;11.18;;
73219;SDS011;61434;43.538;-5.688;2022-09-29T11:30:23;10.70;;;3.07;;
73219;SDS011;61434;43.538;-5.688;2022-09-29T11:43:41;10.43;;;2.73;;
73219;SDS011;61434;43.538;-5.688;2022-09-29T11:51:20;9.07;;;2.67;;
73219;SDS011;61434;43.538;-5.688;2022-09-29T11:54:02;10.90;;;2.60;;
73219;SDS011;61434;43.538;-5.688;2022-09-29T11:56:54;10.68;;;2.97;;
73219;SDS011;61434;43.538;-5.688;2022-09-29T12:13:29;7.20;;;2.20;;
73219;SDS011;61434;43.538;-5.688;2022-09-29T12:16:10;6.80;;;1.67;;
73219;SDS011;61434;43.538;-5.688;2022-09-29T12:18:41;9.73;;;1.70;;
73219;SDS011;61434;43.538;-5.688;2022-09-29T12:21:26;7.45;;;1.40;;
73219;SDS011;61434;43.538;-5.688;2022-09-29T12:23:57;7.97;;;1.67;;
73219;SDS011;61434;43.538;-5.688;2022-09-29T12:26:27;5.75;;;1.70;;
73219;SDS011;61434;43.538;-5.688;2022-09-29T12:31:24;9.80;;;2.10;;
73219;SDS011;61434;43.538;-5.688;2022-09-29T12:34:04;10.00;;;2.97;;
73219;SDS011;61434;43.538;-5.688;2022-09-29T12:41:55;15.82;;;4.35;;
73219;SDS011;61434;43.538;-5.688;2022-09-29T12:44:44;11.57;;;2.47;;
73219;SDS011;61434;43.538;-5.688;2022-09-29T12:47:19;7.37;;;2.47;;
73219;SDS011;61434;43.538;-5.688;2022-09-29T12:52:48;10.70;;;3.25;;
73219;SDS011;61434;43.538;-5.688;2022-09-29T12:58:53;13.60;;;2.28;;
73219;SDS011;61434;43.538;-5.688;2022-09-29T13:01:31;7.07;;;1.50;;
73219;SDS011;61434;43.538;-5.688;2022-09-29T13:14:41;9.03;;;1.90;;
73219;SDS011;61434;43.538;-5.688;2022-09-29T13:28:54;9.27;;;1.30;;
73219;SDS011;61434;43.538;-5.688;2022-09-29T13:31:26;8.32;;;1.50;;
73219;SDS011;61434;43.538;-5.688;2022-09-29T13:33:54;9.05;;;1.98;;
73219;SDS011;61434;43.538;-5.688;2022-09-29T13:36:22;10.18;;;1.60;;
73219;SDS011;61434;43.538;-5.688;2022-09-29T13:38:53;10.93;;;1.63;;
73219;SDS011;61434;43.538;-5.688;2022-09-29T13:49:41;8.10;;;1.63;;
73219;SDS011;61434;43.538;-5.688;2022-09-29T14:04:57;5.55;;;1.23;;
73219;SDS011;61434;43.538;-5.688;2022-09-29T14:07:37;8.80;;;1.38;;
73219;SDS011;61434;43.538;-5.688;2022-09-29T14:10:20;9.48;;;1.48;;
73219;SDS011;61434;43.538;-5.688;2022-09-29T14:18:31;8.93;;;1.40;;
73219;SDS011;61434;43.538;-5.688;2022-09-29T14:21:08;8.07;;;1.60;;
73219;SDS011;61434;43.538;-5.688;2022-09-29T14:23:50;7.68;;;1.30;;
73219;SDS011;61434;43.538;-5.688;2022-09-29T14:29:19;13.27;;;2.08;;
73219;SDS011;61434;43.538;-5.688;2022-09-29T14:31:50;6.65;;;1.00;;
73219;SDS011;61434;43.538;-5.688;2022-09-29T14:34:20;12.05;;;1.70;;
73219;SDS011;61434;43.538;-5.688;2022-09-29T14:36:48;11.32;;;1.90;;
73219;SDS011;61434;43.538;-5.688;2022-09-29T14:39:17;14.03;;;1.77;;
73219;SDS011;61434;43.538;-5.688;2022-09-29T14:41:45;11.90;;;2.10;;
73219;SDS011;61434;43.538;-5.688;2022-09-29T14:50:39;10.05;;;1.40;;
73219;SDS011;61434;43.538;-5.688;2022-09-29T15:01:28;9.90;;;1.93;;
73219;SDS011;61434;43.538;-5.688;2022-09-29T15:03:56;11.50;;;1.85;;
73219;SDS011;61434;43.538;-5.688;2022-09-29T15:06:28;9.10;;;1.85;;
73219;SDS011;61434;43.538;-5.688;2022-09-29T15:08:56;12.48;;;2.25;;
73219;SDS011;61434;43.538;-5.688;2022-09-29T15:11:30;14.50;;;2.10;;
73219;SDS011;61434;43.538;-5.688;2022-09-29T15:13:56;11.73;;;1.90;;
73219;SDS011;61434;43.538;-5.688;2022-09-29T15:16:26;13.85;;;2.20;;
73219;SDS011;61434;43.538;-5.688;2022-09-29T15:19:01;14.73;;;2.00;;
73219;SDS011;61434;43.538;-5.688;2022-09-29T15:21:41;9.30;;;1.80;;
73219;SDS011;61434;43.538;-5.688;2022-09-29T15:24:47;10.43;;;1.80;;
73219;SDS011;61434;43.538;-5.688;2022-09-29T15:27:16;9.38;;;1.63;;
73219;SDS011;61434;43.538;-5.688;2022-09-29T15:29:46;12.00;;;1.90;;
73219;SDS011;61434;43.538;-5.688;2022-09-29T15:32:19;10.73;;;1.70;;
73219;SDS011;61434;43.538;-5.688;2022-09-29T15:34:47;8.90;;;1.45;;
73219;SDS011;61434;43.538;-5.688;2022-09-29T15:37:15;10.30;;;1.30;;
73219;SDS011;61434;43.538;-5.688;2022-09-29T15:39:44;12.32;;;1.52;;
73219;SDS011;61434;43.538;-5.688;2022-09-29T15:42:15;10.43;;;1.30;;
73219;SDS011;61434;43.538;-5.688;2022-09-29T15:44:48;10.30;;;1.87;;
73219;SDS011;61434;43.538;-5.688;2022-09-29T15:47:25;11.85;;;1.80;;
73219;SDS011;61434;43.538;-5.688;2022-09-29T15:49:53;9.80;;;1.50;;
73219;SDS011;61434;43.538;-5.688;2022-09-29T15:52:19;10.88;;;1.65;;
73219;SDS011;61434;43.538;-5.688;2022-09-29T15:54:47;10.65;;;1.45;;
73219;SDS011;61434;43.538;-5.688;2022-09-29T15:57:28;11.53;;;1.70;;
73219;SDS011;61434;43.538;-5.688;2022-09-29T16:05:26;10.27;;;1.27;;
73219;SDS011;61434;43.538;-5.688;2022-09-29T16:07:59;9.00;;;1.40;;
73219;SDS011;61434;43.538;-5.688;2022-09-29T16:10:31;10.57;;;1.53;;
73219;SDS011;61434;43.538;-5.688;2022-09-29T16:13:00;8.15;;;1.75;;
73219;SDS011;61434;43.538;-5.688;2022-09-29T16:18:05;7.88;;;1.52;;
73219;SDS011;61434;43.538;-5.688;2022-09-29T16:20:33;9.07;;;1.42;;
73219;SDS011;61434;43.538;-5.688;2022-09-29T16:23:06;8.93;;;1.40;;
73219;SDS011;61434;43.538;-5.688;2022-09-29T16:26:07;6.78;;;1.38;;
73219;SDS011;61434;43.538;-5.688;2022-09-29T16:28:36;8.65;;;1.60;;
73219;SDS011;61434;43.538;-5.688;2022-09-29T16:31:15;11.45;;;1.70;;
73219;SDS011;61434;43.538;-5.688;2022-09-29T16:33:44;8.18;;;1.30;;
73219;SDS011;61434;43.538;-5.688;2022-09-29T16:36:18;10.43;;;1.50;;
73219;SDS011;61434;43.538;-5.688;2022-09-29T16:38:47;7.53;;;1.50;;
73219;SDS011;61434;43.538;-5.688;2022-09-29T16:46:41;12.52;;;2.38;;
73219;SDS011;61434;43.538;-5.688;2022-09-29T16:49:19;9.50;;;1.43;;
73219;SDS011;61434;43.538;-5.688;2022-09-29T16:51:46;12.70;;;1.80;;
73219;SDS011;61434;43.538;-5.688;2022-09-29T16:54:17;9.50;;;1.50;;
73219;SDS011;61434;43.538;-5.688;2022-09-29T16:57:08;7.72;;;1.50;;
73219;SDS011;61434;43.538;-5.688;2022-09-29T16:59:44;9.15;;;1.48;;
73219;SDS011;61434;43.538;-5.688;2022-09-29T17:02:10;11.50;;;1.47;;
73219;SDS011;61434;43.538;-5.688;2022-09-29T17:04:36;11.35;;;1.48;;
73219;SDS011;61434;43.538;-5.688;2022-09-29T17:07:02;11.32;;;1.88;;
73219;SDS011;61434;43.538;-5.688;2022-09-29T17:09:28;10.30;;;1.30;;
73219;SDS011;61434;43.538;-5.688;2022-09-29T17:11:54;13.23;;;1.40;;
73219;SDS011;61434;43.538;-5.688;2022-09-29T17:14:20;7.93;;;1.45;;
73219;SDS011;61434;43.538;-5.688;2022-09-29T17:16:46;10.63;;;1.53;;
73219;SDS011;61434;43.538;-5.688;2022-09-29T17:19:14;9.80;;;1.33;;
73219;SDS011;61434;43.538;-5.688;2022-09-29T17:21:41;10.03;;;1.20;;
73219;SDS011;61434;43.538;-5.688;2022-09-29T17:24:06;6.47;;;1.25;;
73219;SDS011;61434;43.538;-5.688;2022-09-29T17:26:39;7.30;;;1.50;;
73219;SDS011;61434;43.538;-5.688;2022-09-29T17:29:26;9.77;;;1.15;;
73219;SDS011;61434;43.538;-5.688;2022-09-29T17:31:52;7.68;;;1.10;;
73219;SDS011;61434;43.538;-5.688;2022-09-29T17:34:18;9.27;;;1.30;;
73219;SDS011;61434;43.538;-5.688;2022-09-29T17:36:53;7.55;;;1.40;;
73219;SDS011;61434;43.538;-5.688;2022-09-29T17:39:20;7.82;;;1.10;;
73219;SDS011;61434;43.538;-5.688;2022-09-29T17:41:46;10.55;;;1.20;;
73219;SDS011;61434;43.538;-5.688;2022-09-29T17:44:13;7.97;;;1.37;;
73219;SDS011;61434;43.538;-5.688;2022-09-29T17:46:38;6.82;;;1.23;;
73219;SDS011;61434;43.538;-5.688;2022-09-29T17:49:04;11.57;;;1.83;;
73219;SDS011;61434;43.538;-5.688;2022-09-29T17:51:35;11.20;;;1.50;;
73219;SDS011;61434;43.538;-5.688;2022-09-29T17:54:00;13.17;;;1.90;;
73219;SDS011;61434;43.538;-5.688;2022-09-29T17:56:26;14.10;;;2.27;;
73219;SDS011;61434;43.538;-5.688;2022-09-29T17:58:52;12.68;;;1.90;;
73219;SDS011;61434;43.538;-5.688;2022-09-29T18:01:19;13.18;;;1.70;;
73219;SDS011;61434;43.538;-5.688;2022-09-29T18:03:47;10.88;;;1.85;;
73219;SDS011;61434;43.538;-5.688;2022-09-29T18:06:18;10.98;;;1.98;;
73219;SDS011;61434;43.538;-5.688;2022-09-29T18:08:46;10.13;;;1.80;;
73219;SDS011;61434;43.538;-5.688;2022-09-29T18:11:16;11.32;;;2.00;;
73219;SDS011;61434;43.538;-5.688;2022-09-29T18:13:43;9.63;;;2.20;;
73219;SDS011;61434;43.538;-5.688;2022-09-29T18:16:12;10.30;;;1.90;;
73219;SDS011;61434;43.538;-5.688;2022-09-29T18:18:39;8.25;;;2.30;;